Time;durP1;ratioP1;P1;durP2;ratioP2;P2;SDS_P1;SDS_P2;PMS_P1;PMS_P2;Temp;Humidity;BMP_temperature;BMP_pressure;BME280_temperature;BME280_humidity;BME280_pressure;Samples;Min_cycle;Max_cycle;Signal;HPM_P1;HPM_P2
2022/05/01 00:01:36;;;;;;;70.93;40.75;;;9.20;99.90;;;;;;5014342;28;20026;-52
2022/05/01 00:04:03;;;;;;;78.30;42.83;;;9.20;99.90;;;;;;5014545;28;20091;-52
2022/05/01 00:06:31;;;;;;;69.93;40.53;;;9.20;99.90;;;;;;5014575;28;20042;-52
2022/05/01 00:08:58;;;;;;;68.60;37.08;;;9.20;99.90;;;;;;5014330;28;20488;-52
2022/05/01 00:11:24;;;;;;;71.78;39.25;;;9.10;99.90;;;;;;5014370;28;20072;-52
2022/05/01 00:13:50;;;;;;;76.63;42.30;;;9.10;99.90;;;;;;5011329;28;20064;-52
2022/05/01 00:16:16;;;;;;;74.68;42.25;;;9.00;99.90;;;;;;5014356;28;20030;-52
2022/05/01 00:18:42;;;;;;;64.72;39.33;;;9.00;99.90;;;;;;5014258;28;20383;-52
2022/05/01 00:21:08;;;;;;;80.88;44.83;;;8.90;99.90;;;;;;5014367;28;20018;-52
2022/05/01 00:23:35;;;;;;;81.72;42.40;;;8.90;99.90;;;;;;5014333;28;20025;-52
2022/05/01 00:26:03;;;;;;;73.65;42.20;;;8.90;99.90;;;;;;5014490;28;20030;-53
2022/05/01 00:28:37;;;;;;;102.63;50.83;;;8.80;99.90;;;;;;5014223;28;20038;-53
2022/05/01 00:31:05;;;;;;;121.75;56.17;;;8.80;99.90;;;;;;5014275;28;20384;-52
2022/05/01 00:36:28;;;;;;;82.43;43.08;;;8.90;99.90;;;;;;5014435;28;20557;-52
2022/05/01 00:39:01;;;;;;;146.93;65.93;;;8.90;99.90;;;;;;5014084;28;20049;-52
2022/05/01 00:41:28;;;;;;;144.00;63.95;;;8.90;99.90;;;;;;5014345;28;20018;-52
2022/05/01 00:44:00;;;;;;;122.05;56.30;;;8.80;99.90;;;;;;5012912;28;20050;-52
2022/05/01 00:46:27;;;;;;;106.57;52.78;;;8.80;99.90;;;;;;5017855;28;20141;-52
2022/05/01 00:48:53;;;;;;;93.60;46.72;;;8.80;99.90;;;;;;5017896;28;20106;-52
2022/05/01 00:51:20;;;;;;;87.40;44.63;;;8.80;99.90;;;;;;5017822;28;20041;-52
2022/05/01 00:53:51;;;;;;;98.68;46.10;;;8.80;99.90;;;;;;5017986;28;20086;-52
2022/05/01 00:56:17;;;;;;;;;;;8.70;99.90;;;;;;5018283;28;20038;-52
2022/05/01 00:58:45;;;;;;;90.70;44.60;;;8.60;99.90;;;;;;5017839;28;19978;-52
2022/05/01 01:01:12;;;;;;;86.63;45.13;;;8.60;99.90;;;;;;5017787;28;20095;-52
2022/05/01 01:03:39;;;;;;;85.18;44.75;;;8.60;99.90;;;;;;5017715;28;20058;-52
2022/05/01 01:06:06;;;;;;;86.32;46.20;;;8.50;99.90;;;;;;5017792;28;20033;-52
2022/05/01 01:08:32;;;;;;;95.70;50.60;;;8.50;99.90;;;;;;5017496;28;20030;-52
2022/05/01 01:10:58;;;;;;;85.32;45.33;;;8.40;99.90;;;;;;5017545;28;20026;-52
2022/05/01 01:13:28;;;;;;;77.55;42.33;;;8.40;99.90;;;;;;5017456;28;20224;-52
2022/05/01 01:15:55;;;;;;;71.97;41.33;;;8.40;99.90;;;;;;5017480;28;20099;-52
2022/05/01 01:18:25;;;;;;;80.30;43.30;;;8.40;99.90;;;;;;5017318;28;20084;-52
2022/05/01 01:20:52;;;;;;;76.47;41.80;;;8.40;99.90;;;;;;5017306;28;20030;-52
2022/05/01 01:23:19;;;;;;;70.82;37.97;;;8.40;99.90;;;;;;5017275;28;20053;-52
2022/05/01 01:25:47;;;;;;;58.08;34.92;;;8.40;99.90;;;;;;5017245;28;20491;-52
2022/05/01 01:28:14;;;;;;;55.90;34.38;;;8.30;99.90;;;;;;5017098;28;20025;-52
2022/05/01 01:33:28;;;;;;;53.38;31.67;;;8.40;99.90;;;;;;5017031;28;20085;-52
2022/05/01 01:35:56;;;;;;;55.03;34.47;;;8.30;99.90;;;;;;5016960;28;20026;-52
2022/05/01 01:38:22;;;;;;;61.53;36.00;;;8.30;99.90;;;;;;5016998;28;20069;-52
2022/05/01 01:40:52;;;;;;;58.00;34.30;;;8.30;99.90;;;;;;5016810;28;20128;-52
2022/05/01 01:43:23;;;;;;;56.90;33.87;;;8.30;99.90;;;;;;5016817;28;20029;-52
2022/05/01 01:45:49;;;;;;;44.03;27.98;;;8.20;99.90;;;;;;5016948;28;20030;-52
2022/05/01 01:48:18;;;;;;;46.63;29.05;;;8.20;99.90;;;;;;5017041;28;20034;-52
2022/05/01 01:50:54;;;;;;;49.92;29.30;;;8.20;99.90;;;;;;5016709;28;20040;-52
2022/05/01 01:53:20;;;;;;;65.70;37.42;;;8.20;99.90;;;;;;5016798;28;20029;-52
2022/05/01 01:55:46;;;;;;;67.50;37.17;;;8.20;99.90;;;;;;5016085;28;20029;-52
2022/05/01 01:58:12;;;;;;;72.20;40.63;;;8.20;99.90;;;;;;5016363;28;20057;-52
2022/05/01 02:00:37;;;;;;;68.95;38.20;;;8.20;99.90;;;;;;5016527;28;20468;-52
2022/05/01 02:03:05;;;;;;;69.40;36.80;;;8.20;99.90;;;;;;5016725;28;20022;-52
2022/05/01 02:05:33;;;;;;;68.40;37.13;;;8.30;99.90;;;;;;5016415;28;20054;-52
2022/05/01 02:08:00;;;;;;;62.45;36.00;;;8.30;99.90;;;;;;5016302;28;20029;-52
2022/05/01 02:10:27;;;;;;;89.82;45.03;;;8.30;99.90;;;;;;5016280;28;20029;-52
2022/05/01 02:12:54;;;;;;;66.07;36.50;;;8.40;99.90;;;;;;5016360;28;20072;-52
2022/05/01 02:15:20;;;;;;;78.20;40.30;;;8.40;99.90;;;;;;5016395;28;20044;-52
2022/05/01 02:17:49;;;;;;;70.28;39.33;;;8.40;99.90;;;;;;5016250;28;20030;-52
2022/05/01 02:20:15;;;;;;;63.78;37.80;;;8.40;99.90;;;;;;5016226;28;20045;-52
2022/05/01 02:22:42;;;;;;;59.28;35.30;;;8.40;99.90;;;;;;5016100;28;20479;-52
2022/05/01 02:25:09;;;;;;;57.95;33.33;;;8.40;99.90;;;;;;5016020;28;20498;-52
2022/05/01 02:27:37;;;;;;;52.25;31.05;;;8.50;99.90;;;;;;5016173;28;20030;-52
2022/05/01 02:30:05;;;;;;;46.38;29.88;;;8.50;99.90;;;;;;5015967;28;20511;-52
2022/05/01 02:32:31;;;;;;;45.50;27.30;;;8.50;99.90;;;;;;5015871;28;20025;-52
2022/05/01 02:34:57;;;;;;;35.63;23.13;;;8.60;99.90;;;;;;5015981;28;20379;-52
2022/05/01 02:37:23;;;;;;;44.03;26.73;;;8.60;99.90;;;;;;5015837;28;20503;-52
2022/05/01 02:39:49;;;;;;;43.08;26.10;;;8.60;99.90;;;;;;5015851;28;20034;-52
2022/05/01 02:42:15;;;;;;;38.80;24.17;;;8.70;99.90;;;;;;5015920;28;20030;-52
2022/05/01 02:44:40;;;;;;;43.75;26.75;;;8.70;99.90;;;;;;5015702;28;20056;-52
2022/05/01 02:47:06;;;;;;;40.83;26.13;;;8.70;99.90;;;;;;5015617;28;20050;-52
2022/05/01 02:49:34;;;;;;;35.38;22.75;;;8.70;99.90;;;;;;5015745;28;20068;-52
2022/05/01 02:52:00;;;;;;;34.45;22.05;;;8.70;99.90;;;;;;5015610;28;20387;-52
2022/05/01 02:54:27;;;;;;;40.90;24.38;;;8.70;99.90;;;;;;5015632;28;20033;-52
2022/05/01 02:56:53;;;;;;;40.05;25.42;;;8.60;99.90;;;;;;5015568;28;20030;-52
2022/05/01 02:59:20;;;;;;;42.15;25.05;;;8.70;99.90;;;;;;5014218;28;20396;-52
2022/05/01 03:01:46;;;;;;;41.08;24.88;;;8.80;99.90;;;;;;5015306;28;20026;-52
2022/05/01 03:04:12;;;;;;;41.08;25.80;;;8.70;99.90;;;;;;5015559;28;20423;-52
2022/05/01 03:06:38;;;;;;;42.13;25.27;;;8.70;99.90;;;;;;5015296;28;20030;-52
2022/05/01 03:09:04;;;;;;;31.75;20.90;;;8.70;99.90;;;;;;5015192;28;20030;-52
2022/05/01 03:11:32;;;;;;;36.97;22.00;;;8.70;99.90;;;;;;5015542;28;20328;-52
2022/05/01 03:13:58;;;;;;;39.80;21.73;;;8.60;99.90;;;;;;5015257;28;20030;-52
2022/05/01 03:16:24;;;;;;;35.15;21.25;;;8.50;99.90;;;;;;5015134;28;20044;-52
2022/05/01 03:24:19;;;;;;;34.40;21.52;;;8.40;99.90;;;;;;5015220;28;20084;-52
2022/05/01 03:26:47;;;;;;;31.88;20.45;;;8.40;99.90;;;;;;5015112;28;20034;-52
2022/05/01 03:29:14;;;;;;;36.00;22.38;;;8.40;99.90;;;;;;5014740;28;20391;-52
2022/05/01 03:31:41;;;;;;;36.78;24.77;;;8.50;99.90;;;;;;5015137;28;20120;-52
2022/05/01 03:34:07;;;;;;;40.83;24.77;;;8.40;99.90;;;;;;5015123;28;20025;-52
2022/05/01 03:36:34;;;;;;;35.83;22.77;;;8.40;99.90;;;;;;5014993;28;20400;-52
2022/05/01 03:39:00;;;;;;;37.15;21.83;;;8.40;99.90;;;;;;5014901;28;20054;-52
2022/05/01 03:41:29;;;;;;;31.40;21.10;;;8.30;99.90;;;;;;5014929;28;20087;-52
2022/05/01 03:43:54;;;;;;;39.80;22.65;;;8.30;99.90;;;;;;5014752;28;20065;-52
2022/05/01 03:46:22;;;;;;;32.45;21.35;;;8.30;99.90;;;;;;5014831;28;20030;-52
2022/05/01 03:48:48;;;;;;;31.85;21.05;;;8.30;99.90;;;;;;5014913;28;20022;-52
2022/05/01 03:51:14;;;;;;;33.47;21.17;;;8.30;99.90;;;;;;5014725;28;20033;-52
2022/05/01 03:53:40;;;;;;;34.38;21.05;;;8.40;99.90;;;;;;5014708;28;20112;-52
2022/05/01 03:56:06;;;;;;;33.97;21.02;;;8.40;99.90;;;;;;5014776;28;20021;-52
2022/05/01 03:58:32;;;;;;;34.05;21.80;;;8.50;99.90;;;;;;5014972;28;20014;-52
2022/05/01 04:00:58;;;;;;;39.70;22.92;;;8.50;99.90;;;;;;5014458;28;20025;-52
2022/05/01 04:03:25;;;;;;;35.95;22.92;;;8.50;99.90;;;;;;5014713;28;20034;-52
2022/05/01 04:05:52;;;;;;;35.45;22.50;;;8.50;99.90;;;;;;5014671;28;20026;-52
2022/05/01 04:08:18;;;;;;;37.47;22.60;;;8.40;99.90;;;;;;5014582;28;20022;-52
2022/05/01 04:10:45;;;;;;;31.20;20.80;;;8.50;99.90;;;;;;5014567;28;20486;-52
2022/05/01 04:13:13;;;;;;;32.80;20.08;;;8.50;99.90;;;;;;5014690;28;20088;-52
2022/05/01 04:15:41;;;;;;;30.60;20.80;;;8.50;99.90;;;;;;5014642;28;20030;-52
2022/05/01 04:18:08;;;;;;;34.30;22.27;;;8.50;99.90;;;;;;5014568;28;20041;-52
2022/05/01 04:20:37;;;;;;;38.00;22.15;;;8.50;99.90;;;;;;5017127;28;20041;-52
2022/05/01 04:23:06;;;;;;;30.30;18.35;;;8.60;99.90;;;;;;5018402;28;20026;-52
2022/05/01 04:25:33;;;;;;;27.80;19.70;;;8.60;99.90;;;;;;5018518;28;20116;-52
2022/05/01 04:28:02;;;;;;;28.95;16.95;;;8.70;99.90;;;;;;5018543;28;20033;-52
2022/05/01 04:30:31;;;;;;;25.60;16.20;;;8.70;99.90;;;;;;5018200;28;20698;-52
2022/05/01 04:32:59;;;;;;;27.85;18.10;;;8.70;99.90;;;;;;5018301;28;20034;-52
2022/05/01 04:35:31;;;;;;;30.42;16.73;;;8.70;99.90;;;;;;5018104;28;20088;-52
2022/05/01 04:37:59;;;;;;;26.50;17.77;;;8.80;99.90;;;;;;5018254;28;20080;-52
2022/05/01 04:40:27;;;;;;;23.77;16.83;;;8.80;99.90;;;;;;5017856;28;20053;-52
2022/05/01 04:43:00;;;;;;;28.67;18.33;;;8.80;99.90;;;;;;5018061;28;20026;-52
2022/05/01 04:45:26;;;;;;;25.17;16.40;;;8.90;99.90;;;;;;5018195;28;20064;-52
2022/05/01 04:47:51;;;;;;;33.78;20.23;;;9.00;99.90;;;;;;5017871;28;20053;-52
2022/05/01 04:50:19;;;;;;;28.33;19.77;;;9.00;99.90;;;;;;5018099;28;20029;-52
2022/05/01 04:52:45;;;;;;;37.45;20.45;;;9.10;99.90;;;;;;5017967;28;20025;-52
2022/05/01 04:55:11;;;;;;;31.00;18.00;;;9.10;99.90;;;;;;5017706;28;20379;-52
2022/05/01 04:57:40;;;;;;;28.83;18.33;;;9.20;99.90;;;;;;5017887;28;20071;-52
2022/05/01 05:00:07;;;;;;;27.73;18.10;;;9.30;99.90;;;;;;5017606;28;20062;-52
2022/05/01 05:02:38;;;;;;;27.33;17.85;;;9.40;99.90;;;;;;5017812;28;20029;-52
2022/05/01 05:05:07;;;;;;;32.88;19.60;;;9.40;99.90;;;;;;5017728;28;20061;-52
2022/05/01 05:07:33;;;;;;;30.13;18.80;;;9.50;99.90;;;;;;5017831;28;20118;-52
2022/05/01 05:09:59;;;;;;;30.58;18.75;;;9.70;99.90;;;;;;5017561;28;20103;-52
2022/05/01 05:12:25;;;;;;;29.52;18.35;;;9.70;99.90;;;;;;5017607;28;20029;-52
2022/05/01 05:14:54;;;;;;;32.45;21.40;;;9.80;99.90;;;;;;5017513;28;20472;-52
2022/05/01 05:17:21;;;;;;;36.90;20.50;;;9.90;99.90;;;;;;5017819;28;20021;-52
2022/05/01 05:19:47;;;;;;;36.72;19.48;;;10.00;99.90;;;;;;5017424;28;20026;-52
2022/05/01 05:22:14;;;;;;;32.67;19.83;;;10.10;99.90;;;;;;5017397;28;20113;-53
2022/05/01 05:24:41;;;;;;;37.30;21.52;;;10.20;99.90;;;;;;5017325;28;20410;-52
2022/05/01 05:27:08;;;;;;;36.00;21.58;;;10.30;99.90;;;;;;5017373;28;20022;-52
2022/05/01 05:29:34;;;;;;;35.20;22.15;;;10.40;99.90;;;;;;5016961;28;20073;-52
2022/05/01 05:32:00;;;;;;;43.15;23.65;;;10.40;99.90;;;;;;5016040;28;20030;-52
2022/05/01 05:34:27;;;;;;;39.63;23.98;;;10.50;99.90;;;;;;5017169;28;20030;-52
2022/05/01 05:36:53;;;;;;;40.80;25.50;;;10.60;99.90;;;;;;5017384;28;20661;-52
2022/05/01 05:39:19;;;;;;;46.63;26.58;;;10.60;99.90;;;;;;5017200;28;20049;-52
2022/05/01 05:41:45;;;;;;;45.42;26.30;;;10.70;99.90;;;;;;5017062;28;20499;-52
2022/05/01 05:44:11;;;;;;;40.70;25.08;;;10.70;99.90;;;;;;5016812;28;20096;-52
2022/05/01 05:46:37;;;;;;;36.97;23.92;;;10.80;99.90;;;;;;5017088;28;20502;-52
2022/05/01 05:49:03;;;;;;;36.25;23.58;;;10.90;99.90;;;;;;5016895;28;20026;-52
2022/05/01 05:51:29;;;;;;;39.72;24.23;;;11.00;99.90;;;;;;5016798;28;20033;-52
2022/05/01 05:53:55;;;;;;;35.25;23.30;;;11.10;99.90;;;;;;5016758;28;20364;-52
2022/05/01 05:56:21;;;;;;;41.78;25.92;;;11.20;99.90;;;;;;5016718;28;20029;-52
2022/05/01 05:58:47;;;;;;;44.88;26.58;;;11.30;99.90;;;;;;5016453;28;20373;-52
2022/05/01 06:01:13;;;;;;;40.17;25.73;;;11.40;99.90;;;;;;5016307;28;20525;-52
2022/05/01 06:03:40;;;;;;;47.47;25.80;;;11.50;99.90;;;;;;5016396;28;20161;-52
2022/05/01 06:06:06;;;;;;;45.47;25.27;;;11.50;99.90;;;;;;5016453;28;20033;-52
2022/05/01 06:08:35;;;;;;;42.80;24.77;;;11.60;99.90;;;;;;5016473;28;20069;-52
2022/05/01 06:11:01;;;;;;;46.65;24.38;;;11.70;99.90;;;;;;5016386;28;20034;-52
2022/05/01 06:13:28;;;;;;;41.08;23.52;;;11.70;99.90;;;;;;5016112;28;20037;-52
2022/05/01 06:15:53;;;;;;;50.35;25.83;;;11.90;99.90;;;;;;5016227;28;20026;-52
2022/05/01 06:18:19;;;;;;;41.78;24.33;;;12.00;99.90;;;;;;5016198;28;20026;-52
2022/05/01 06:20:45;;;;;;;44.90;25.50;;;12.10;99.90;;;;;;5016074;28;20045;-53
2022/05/01 06:23:11;;;;;;;44.58;24.48;;;12.30;99.90;;;;;;5016091;28;20487;-52
2022/05/01 06:25:39;;;;;;;42.85;23.98;;;12.50;99.90;;;;;;5016221;28;20037;-52
2022/05/01 06:28:05;;;;;;;43.38;25.80;;;12.70;99.90;;;;;;5016024;28;20026;-52
2022/05/01 06:30:32;;;;;;;40.95;23.73;;;13.10;99.90;;;;;;5015997;28;20049;-53
2022/05/01 06:32:58;;;;;;;40.17;24.15;;;13.30;99.90;;;;;;5015940;28;20057;-52
2022/05/01 06:35:31;;;;;;;36.10;22.00;;;13.50;99.90;;;;;;5015991;28;20033;-52
2022/05/01 06:37:58;;;;;;;39.80;22.65;;;13.80;99.90;;;;;;5015962;28;20068;-52
2022/05/01 06:40:24;;;;;;;34.92;22.42;;;14.00;99.90;;;;;;5015628;28;20030;-52
2022/05/01 06:42:50;;;;;;;42.58;21.42;;;14.10;99.90;;;;;;5015403;28;20026;-53
2022/05/01 06:45:17;;;;;;;37.10;21.27;;;14.20;99.90;;;;;;5015710;28;20458;-52
2022/05/01 06:47:42;;;;;;;34.83;20.67;;;14.30;99.90;;;;;;5015684;28;20026;-52
2022/05/01 06:50:09;;;;;;;36.58;21.50;;;14.40;99.90;;;;;;5015729;28;20083;-52
2022/05/01 06:52:35;;;;;;;38.17;22.73;;;14.40;99.90;;;;;;5015748;28;20033;-52
2022/05/01 06:55:01;;;;;;;40.13;20.95;;;14.40;99.90;;;;;;5015556;28;20034;-52
2022/05/01 06:57:27;;;;;;;35.35;20.40;;;14.40;99.90;;;;;;5015576;28;20026;-52
2022/05/01 06:59:53;;;;;;;34.42;21.27;;;14.60;99.90;;;;;;5015440;28;20037;-52
2022/05/01 07:02:19;;;;;;;31.95;21.25;;;14.70;99.90;;;;;;5015693;28;20026;-52
2022/05/01 07:04:47;;;;;;;36.55;21.33;;;14.70;99.90;;;;;;5015385;28;20506;-52
2022/05/01 07:07:13;;;;;;;30.95;20.02;;;15.10;99.90;;;;;;5015387;28;20025;-52
2022/05/01 07:09:39;;;;;;;33.78;22.27;;;15.40;99.90;;;;;;5015214;28;20432;-52
2022/05/01 07:12:06;;;;;;;33.47;18.35;;;15.90;99.90;;;;;;5015213;28;20577;-53
2022/05/01 07:14:32;;;;;;;28.73;19.40;;;16.40;99.90;;;;;;5015249;28;20040;-52
2022/05/01 07:16:58;;;;;;;29.13;20.02;;;16.80;99.90;;;;;;5015139;28;20030;-53
2022/05/01 07:19:24;;;;;;;32.40;20.38;;;17.20;99.90;;;;;;5015018;28;20045;-53
2022/05/01 07:21:51;;;;;;;31.50;19.27;;;17.30;99.90;;;;;;5015164;28;20113;-53
2022/05/01 07:24:18;;;;;;;26.80;18.65;;;17.60;99.90;;;;;;5014972;28;20490;-53
2022/05/01 07:26:44;;;;;;;26.40;18.10;;;17.80;99.90;;;;;;5015110;28;20034;-53
2022/05/01 07:29:10;;;;;;;27.80;18.48;;;18.10;99.90;;;;;;5015145;28;20049;-53
2022/05/01 07:31:36;;;;;;;26.10;17.33;;;18.40;99.90;;;;;;5015081;28;20033;-53
2022/05/01 07:34:02;;;;;;;31.73;18.23;;;18.60;99.90;;;;;;5015277;28;20041;-53
2022/05/01 07:36:28;;;;;;;25.67;17.08;;;19.00;99.90;;;;;;5014878;28;20531;-53
2022/05/01 07:38:54;;;;;;;24.98;16.27;;;19.40;99.90;;;;;;5014829;28;20117;-53
2022/05/01 07:41:20;;;;;;;28.38;16.15;;;19.80;99.90;;;;;;5014865;28;20096;-53
2022/05/01 07:43:47;;;;;;;19.65;13.80;;;20.10;99.90;;;;;;5014807;28;20057;-53
2022/05/01 07:46:13;;;;;;;20.52;14.63;;;20.40;98.00;;;;;;5014696;28;20112;-53
2022/05/01 07:48:39;;;;;;;25.60;15.63;;;20.70;97.60;;;;;;5014828;28;20164;-53
2022/05/01 07:51:05;;;;;;;23.52;16.23;;;20.90;98.00;;;;;;5014740;28;20109;-53
2022/05/01 07:53:35;;;;;;;22.80;15.32;;;21.10;96.30;;;;;;5014529;28;20046;-53
2022/05/01 07:56:01;;;;;;;23.20;15.07;;;21.40;97.00;;;;;;5014303;28;20030;-53
2022/05/01 07:58:28;;;;;;;21.40;14.38;;;21.70;95.70;;;;;;5014535;28;20030;-53
2022/05/01 08:00:54;;;;;;;23.80;16.45;;;22.00;94.90;;;;;;5014456;28;20392;-53
2022/05/01 08:06:05;;;;;;;22.95;15.82;;;22.30;93.70;;;;;;5014739;28;20152;-54
2022/05/01 08:08:33;;;;;;;20.50;14.98;;;22.60;94.90;;;;;;5014635;28;20037;-53
2022/05/01 08:11:01;;;;;;;22.38;14.88;;;22.70;91.10;;;;;;5014523;28;20030;-53
2022/05/01 08:13:27;;;;;;;18.00;12.55;;;22.50;91.00;;;;;;5014604;28;20053;-53
2022/05/01 08:15:54;;;;;;;19.30;11.35;;;23.00;93.00;;;;;;5014542;28;20256;-53
2022/05/01 08:21:10;;;;;;;15.90;11.25;;;23.40;77.60;;;;;;5014335;28;20034;-53
2022/05/01 08:23:38;;;;;;;19.48;12.70;;;23.50;75.60;;;;;;5014528;28;20026;-53
2022/05/01 08:26:06;;;;;;;20.33;12.73;;;23.50;83.60;;;;;;5013190;28;20109;-53
2022/05/01 08:28:45;;;;;;;16.77;11.90;;;23.60;87.90;;;;;;5014346;28;20029;-54
2022/05/01 08:31:12;;;;;;;14.40;9.02;;;23.90;75.00;;;;;;5014328;28;20121;-53
2022/05/01 08:33:38;;;;;;;12.23;8.77;;;23.90;74.70;;;;;;5014263;28;20064;-53
2022/05/01 08:36:06;;;;;;;13.23;8.13;;;24.30;65.00;;;;;;5014369;28;20041;-53
2022/05/01 08:38:32;;;;;;;17.98;10.15;;;24.40;65.50;;;;;;5014320;28;20038;-53
2022/05/01 08:40:58;;;;;;;13.23;9.20;;;24.60;62.50;;;;;;5014149;28;20034;-53
2022/05/01 08:43:25;;;;;;;17.55;11.98;;;24.40;61.30;;;;;;5014113;28;20030;-53
2022/05/01 08:46:16;;;;;;;12.68;9.25;;;24.30;68.60;;;;;;5014282;28;20018;-53
2022/05/01 08:48:47;;;;;;;13.85;8.95;;;24.60;68.70;;;;;;5014606;28;20034;-53
2022/05/01 08:51:16;;;;;;;16.10;9.65;;;24.30;63.10;;;;;;5014227;28;20061;-53
2022/05/01 08:53:43;;;;;;;13.00;9.02;;;24.70;68.10;;;;;;5014161;28;20164;-53
2022/05/01 08:56:10;;;;;;;13.55;9.73;;;24.30;61.90;;;;;;5014158;28;20030;-53
2022/05/01 08:58:40;;;;;;;13.90;9.90;;;24.20;64.40;;;;;;5014050;28;20033;-53
2022/05/01 09:01:08;;;;;;;17.85;11.13;;;23.80;72.90;;;;;;5014105;28;20127;-53
2022/05/01 09:03:36;;;;;;;13.48;10.48;;;23.60;69.00;;;;;;5014247;28;20030;-53
2022/05/01 09:06:03;;;;;;;15.77;9.75;;;23.70;79.70;;;;;;5015592;28;20105;-53
2022/05/01 09:08:29;;;;;;;13.02;9.35;;;24.00;72.00;;;;;;5017505;28;20018;-53
2022/05/01 09:10:55;;;;;;;15.15;9.13;;;23.90;70.10;;;;;;5017551;28;20037;-53
2022/05/01 09:13:26;;;;;;;13.23;8.88;;;24.20;64.60;;;;;;5017396;28;20026;-53
2022/05/01 09:15:52;;;;;;;16.83;9.60;;;24.40;71.50;;;;;;5017515;28;20504;-53
2022/05/01 09:18:19;;;;;;;12.25;8.25;;;24.80;63.80;;;;;;5017384;28;20088;-53
2022/05/01 09:21:02;;;;;;;9.65;7.43;;;24.60;65.80;;;;;;5017272;28;20504;-53
2022/05/01 09:23:43;;;;;;;9.18;6.82;;;24.70;65.80;;;;;;5017281;28;20018;-53
2022/05/01 09:26:10;;;;;;;9.65;7.57;;;25.50;67.80;;;;;;5017253;28;20030;-53
2022/05/01 09:28:46;;;;;;;9.90;6.20;;;26.10;56.10;;;;;;5017069;28;20022;-54
2022/05/01 09:31:12;;;;;;;12.02;5.50;;;26.60;55.80;;;;;;5016938;28;20478;-53
2022/05/01 09:33:38;;;;;;;8.43;5.72;;;26.70;52.30;;;;;;5017157;28;20096;-53
2022/05/01 09:36:04;;;;;;;13.18;6.97;;;26.80;48.60;;;;;;5017104;28;20030;-53
2022/05/01 09:38:30;;;;;;;10.32;6.57;;;26.90;48.30;;;;;;5016937;28;20038;-53
2022/05/01 09:41:01;;;;;;;7.80;4.78;;;26.80;47.60;;;;;;5016930;28;20056;-53
2022/05/01 09:43:47;;;;;;;5.30;3.90;;;27.10;49.90;;;;;;5017341;28;20112;-53
2022/05/01 09:46:21;;;;;;;8.70;4.50;;;27.70;47.60;;;;;;5016926;28;20026;-53
2022/05/01 09:49:05;;;;;;;6.53;4.85;;;28.20;47.20;;;;;;5016804;28;20022;-53
2022/05/01 09:51:33;;;;;;;5.38;4.13;;;28.30;46.10;;;;;;5017046;28;20026;-53
2022/05/01 09:54:01;;;;;;;13.15;5.95;;;28.40;42.00;;;;;;5016635;28;20080;-53
2022/05/01 09:56:27;;;;;;;4.85;4.32;;;28.10;43.60;;;;;;5016711;28;20025;-53
2022/05/01 09:59:03;;;;;;;7.38;4.90;;;27.80;41.50;;;;;;5016737;28;20058;-53
2022/05/01 10:01:29;;;;;;;7.75;4.53;;;26.90;43.10;;;;;;5016528;28;20487;-53
2022/05/01 10:04:02;;;;;;;6.45;3.85;;;26.40;43.70;;;;;;5016560;28;20369;-53
2022/05/01 10:06:32;;;;;;;7.00;4.72;;;26.30;43.60;;;;;;5016893;28;20036;-53
2022/05/01 10:09:01;;;;;;;5.63;4.35;;;26.00;46.90;;;;;;5016365;28;20030;-53
2022/05/01 10:11:29;;;;;;;5.97;4.18;;;26.20;49.10;;;;;;5016408;28;20472;-53
2022/05/01 10:13:56;;;;;;;7.60;4.60;;;26.60;47.80;;;;;;5016255;28;20026;-53
2022/05/01 10:16:22;;;;;;;11.93;4.50;;;26.80;45.20;;;;;;5016322;28;20034;-53
2022/05/01 10:18:48;;;;;;;8.18;4.03;;;26.70;44.70;;;;;;5015577;28;20029;-53
2022/05/01 10:21:14;;;;;;;6.68;4.25;;;27.30;43.40;;;;;;5016029;28;20487;-53
2022/05/01 10:23:40;;;;;;;8.30;4.00;;;27.10;44.50;;;;;;5016094;28;20061;-53
2022/05/01 10:26:26;;;;;;;6.65;4.78;;;27.60;44.80;;;;;;5016156;28;20030;-53
2022/05/01 10:29:26;;;;;;;4.75;3.78;;;27.40;41.30;;;;;;5016047;28;20042;-53
2022/05/01 10:35:06;;;;;;;7.60;4.57;;;26.60;43.10;;;;;;5015818;28;20030;-53
2022/05/01 10:38:05;;;;;;;7.70;4.10;;;26.50;44.60;;;;;;5015914;28;20602;-53
2022/05/01 10:40:33;;;;;;;10.30;4.18;;;26.20;43.30;;;;;;5015753;28;20041;-53
2022/05/01 10:43:22;;;;;;;5.30;3.70;;;25.70;42.40;;;;;;5015717;28;20464;-53
2022/05/01 10:45:48;;;;;;;6.70;3.38;;;26.10;44.40;;;;;;5015859;28;20353;-53
2022/05/01 10:48:17;;;;;;;7.32;3.83;;;26.70;42.50;;;;;;5015666;28;20145;-53
2022/05/01 10:50:43;;;;;;;5.57;3.53;;;27.00;41.90;;;;;;5015680;28;20064;-53
2022/05/01 10:53:14;;;;;;;7.78;4.03;;;26.90;39.40;;;;;;5015645;28;20030;-53
2022/05/01 10:55:53;;;;;;;6.43;4.18;;;26.30;39.70;;;;;;5015637;28;20033;-53
2022/05/01 10:58:26;;;;;;;6.25;3.70;;;25.80;42.50;;;;;;5015742;28;20105;-53
2022/05/01 11:00:54;;;;;;;9.90;4.78;;;25.90;52.50;;;;;;5015376;28;20026;-53
2022/05/01 11:03:28;;;;;;;4.70;3.92;;;26.10;49.40;;;;;;5015539;28;20030;-53
2022/05/01 11:06:08;;;;;;;14.57;4.32;;;26.00;51.60;;;;;;5015337;28;20439;-53
2022/05/01 11:08:39;;;;;;;10.27;4.80;;;25.50;55.40;;;;;;5015331;28;20081;-53
2022/05/01 11:11:08;;;;;;;8.70;4.45;;;25.20;56.40;;;;;;5015339;28;20439;-53
2022/05/01 11:13:36;;;;;;;7.20;3.88;;;25.00;58.70;;;;;;5015449;28;20044;-53
2022/05/01 11:16:04;;;;;;;7.05;4.75;;;24.80;58.60;;;;;;5015357;28;20026;-53
2022/05/01 11:18:42;;;;;;;6.75;4.72;;;24.50;65.20;;;;;;5015119;28;20491;-53
2022/05/01 11:21:23;;;;;;;7.85;4.45;;;24.20;66.10;;;;;;5015055;28;20551;-53
2022/05/01 11:24:03;;;;;;;6.18;5.18;;;23.80;65.20;;;;;;5015055;28;20022;-53
2022/05/01 11:26:30;;;;;;;10.63;5.40;;;23.60;71.00;;;;;;5015172;28;20029;-53
2022/05/01 11:29:13;;;;;;;13.02;8.48;;;23.10;76.20;;;;;;5014836;28;20034;-53
2022/05/01 11:31:46;;;;;;;10.77;5.55;;;22.70;80.50;;;;;;5014925;28;20030;-53
2022/05/01 11:34:24;;;;;;;10.20;5.50;;;22.60;78.80;;;;;;5014893;28;20029;-53
2022/05/01 11:37:03;;;;;;;18.77;11.10;;;22.30;86.60;;;;;;5015083;28;20105;-53
2022/05/01 11:39:50;;;;;;;15.52;7.38;;;22.20;92.20;;;;;;5014821;28;20068;-53
2022/05/01 11:42:35;;;;;;;18.17;9.95;;;21.90;95.30;;;;;;5014928;28;20041;-53
2022/05/01 11:45:04;;;;;;;28.38;16.23;;;21.50;90.60;;;;;;5014947;28;20034;-53
2022/05/01 11:47:34;;;;;;;20.60;11.90;;;21.00;92.60;;;;;;5014874;28;20100;-53
2022/05/01 11:50:01;;;;;;;15.35;7.18;;;20.80;94.80;;;;;;5014988;28;20048;-53
2022/05/01 11:52:28;;;;;;;9.23;5.80;;;20.70;95.30;;;;;;5014767;28;20033;-53
2022/05/01 11:54:57;;;;;;;9.88;5.72;;;20.40;98.90;;;;;;5014691;28;20030;-53
2022/05/01 12:03:00;;;;;;;9.45;6.47;;;19.60;99.90;;;;;;5014745;28;20084;-53
2022/05/01 12:05:46;;;;;;;10.68;5.43;;;19.70;98.10;;;;;;5014895;28;20032;-53
2022/05/01 12:08:13;;;;;;;11.45;6.50;;;19.80;96.30;;;;;;5014418;28;20026;-52
2022/05/01 12:10:43;;;;;;;12.07;7.22;;;19.70;97.60;;;;;;5014504;28;20053;-53
2022/05/01 12:13:27;;;;;;;13.52;6.68;;;19.50;99.90;;;;;;5014728;28;20113;-52
2022/05/01 12:15:54;;;;;;;10.10;5.82;;;19.40;99.90;;;;;;5014437;28;20365;-53
2022/05/01 12:18:21;;;;;;;10.40;6.57;;;19.60;98.00;;;;;;5014604;28;20034;-53
2022/05/01 12:20:47;;;;;;;7.90;5.53;;;20.00;99.90;;;;;;5014491;28;20073;-52
2022/05/01 12:23:18;;;;;;;13.73;7.03;;;20.60;99.20;;;;;;5014522;28;20026;-53
2022/05/01 12:25:52;;;;;;;12.50;6.90;;;21.40;92.80;;;;;;5014522;28;20050;-53
2022/05/01 12:28:20;;;;;;;10.45;5.22;;;21.40;88.90;;;;;;5014547;28;20101;-53
2022/05/01 12:30:52;;;;;;;13.85;5.43;;;21.80;75.00;;;;;;5014389;28;20080;-53
2022/05/01 12:33:24;;;;;;;9.60;5.72;;;22.00;75.60;;;;;;5014410;28;20029;-53
2022/05/01 12:35:52;;;;;;;16.08;6.18;;;22.10;68.50;;;;;;5014428;28;20026;-53
2022/05/01 12:38:19;;;;;;;10.35;5.97;;;22.10;75.10;;;;;;5014389;28;20026;-53
2022/05/01 12:46:25;;;;;;;7.93;5.28;;;22.90;74.60;;;;;;5017923;28;20388;-53
2022/05/01 12:48:51;;;;;;;11.60;5.20;;;23.20;72.00;;;;;;5018083;28;20030;-53
2022/05/01 12:51:17;;;;;;;6.38;4.70;;;22.80;70.70;;;;;;5018189;28;20029;-53
2022/05/01 12:53:43;;;;;;;10.57;5.00;;;23.30;67.50;;;;;;5017888;28;20454;-53
2022/05/01 12:56:18;;;;;;;10.63;5.18;;;23.30;64.30;;;;;;5017737;28;20030;-53
2022/05/01 12:58:44;;;;;;;11.10;5.15;;;22.40;69.20;;;;;;5017799;28;20034;-53
2022/05/01 13:01:26;;;;;;;8.18;5.50;;;22.10;71.40;;;;;;5017741;28;20049;-53
2022/05/01 13:03:55;;;;;;;10.00;5.43;;;22.20;77.10;;;;;;5017714;28;20081;-53
2022/05/01 13:06:23;;;;;;;12.52;6.30;;;22.20;78.90;;;;;;5017683;28;20030;-53
2022/05/01 13:08:52;;;;;;;9.82;5.10;;;21.70;79.60;;;;;;5017444;28;20425;-53
2022/05/01 13:11:19;;;;;;;11.10;5.47;;;21.70;83.20;;;;;;5017451;28;20030;-53
2022/05/01 13:13:52;;;;;;;12.07;6.22;;;21.70;84.20;;;;;;5017407;28;20033;-53